sensor_id;sensor_type;location;lat;lon;timestamp;temperature;humidity
1381;DHT22;684;48.342;10.096;2022-08-11T00:01:30;18.40;14.90
1381;DHT22;684;48.342;10.096;2022-08-11T00:03:58;18.30;15.40
1381;DHT22;684;48.342;10.096;2022-08-11T00:06:28;18.30;15.30
1381;DHT22;684;48.342;10.096;2022-08-11T00:08:57;18.30;15.80
1381;DHT22;684;48.342;10.096;2022-08-11T00:11:31;18.30;15.20
1381;DHT22;684;48.342;10.096;2022-08-11T00:14:01;18.20;15.30
1381;DHT22;684;48.342;10.096;2022-08-11T00:16:30;18.20;15.30
1381;DHT22;684;48.342;10.096;2022-08-11T00:18:57;18.20;15.30
1381;DHT22;684;48.342;10.096;2022-08-11T00:21:26;18.20;16.20
1381;DHT22;684;48.342;10.096;2022-08-11T00:23:55;18.10;15.90
1381;DHT22;684;48.342;10.096;2022-08-11T00:26:23;18.10;16.00
1381;DHT22;684;48.342;10.096;2022-08-11T00:28:50;18.00;16.10
1381;DHT22;684;48.342;10.096;2022-08-11T00:31:23;18.00;16.10
1381;DHT22;684;48.342;10.096;2022-08-11T00:33:54;18.00;16.20
1381;DHT22;684;48.342;10.096;2022-08-11T00:36:26;18.00;16.10
1381;DHT22;684;48.342;10.096;2022-08-11T00:38:55;17.90;16.30
1381;DHT22;684;48.342;10.096;2022-08-11T00:41:31;17.90;16.60
1381;DHT22;684;48.342;10.096;2022-08-11T00:44:14;17.80;16.70
1381;DHT22;684;48.342;10.096;2022-08-11T00:46:54;17.70;17.10
1381;DHT22;684;48.342;10.096;2022-08-11T00:49:31;17.70;17.20
1381;DHT22;684;48.342;10.096;2022-08-11T00:52:20;17.60;17.30
1381;DHT22;684;48.342;10.096;2022-08-11T00:55:24;17.60;17.50
1381;DHT22;684;48.342;10.096;2022-08-11T00:58:40;17.50;17.70
1381;DHT22;684;48.342;10.096;2022-08-11T01:01:19;17.50;17.70
1381;DHT22;684;48.342;10.096;2022-08-11T01:06:54;17.30;17.90
1381;DHT22;684;48.342;10.096;2022-08-11T01:09:34;17.40;17.80
1381;DHT22;684;48.342;10.096;2022-08-11T01:12:23;17.30;17.90
1381;DHT22;684;48.342;10.096;2022-08-11T01:21:45;17.20;18.30
1381;DHT22;684;48.342;10.096;2022-08-11T01:24:55;17.10;18.40
1381;DHT22;684;48.342;10.096;2022-08-11T01:28:06;17.10;18.60
1381;DHT22;684;48.342;10.096;2022-08-11T01:34:20;17.00;18.60
1381;DHT22;684;48.342;10.096;2022-08-11T01:40:25;17.00;18.70
1381;DHT22;684;48.342;10.096;2022-08-11T01:46:31;16.90;18.90
1381;DHT22;684;48.342;10.096;2022-08-11T01:49:07;16.90;18.80
1381;DHT22;684;48.342;10.096;2022-08-11T01:51:45;16.90;19.00
1381;DHT22;684;48.342;10.096;2022-08-11T01:54:25;16.90;19.10
1381;DHT22;684;48.342;10.096;2022-08-11T01:57:11;16.90;19.10
1381;DHT22;684;48.342;10.096;2022-08-11T01:59:46;16.80;19.20
1381;DHT22;684;48.342;10.096;2022-08-11T02:02:30;16.80;19.20
1381;DHT22;684;48.342;10.096;2022-08-11T02:08:35;16.70;19.40
1381;DHT22;684;48.342;10.096;2022-08-11T02:11:17;16.70;19.50
1381;DHT22;684;48.342;10.096;2022-08-11T02:14:06;16.70;19.50
1381;DHT22;684;48.342;10.096;2022-08-11T02:16:49;16.70;19.70
1381;DHT22;684;48.342;10.096;2022-08-11T02:19:22;16.60;19.80
1381;DHT22;684;48.342;10.096;2022-08-11T02:22:12;16.50;19.80
1381;DHT22;684;48.342;10.096;2022-08-11T02:25:02;16.50;20.00
1381;DHT22;684;48.342;10.096;2022-08-11T02:27:37;16.50;20.00
1381;DHT22;684;48.342;10.096;2022-08-11T02:30:08;16.50;20.00
1381;DHT22;684;48.342;10.096;2022-08-11T02:32:40;16.40;20.00
1381;DHT22;684;48.342;10.096;2022-08-11T02:35:37;16.40;20.20
1381;DHT22;684;48.342;10.096;2022-08-11T02:41:00;16.30;20.60
1381;DHT22;684;48.342;10.096;2022-08-11T02:43:39;16.30;20.80
1381;DHT22;684;48.342;10.096;2022-08-11T02:46:19;16.30;21.00
1381;DHT22;684;48.342;10.096;2022-08-11T02:48:58;16.30;21.10
1381;DHT22;684;48.342;10.096;2022-08-11T02:51:56;16.20;21.10
1381;DHT22;684;48.342;10.096;2022-08-11T02:54:30;16.20;21.10
1381;DHT22;684;48.342;10.096;2022-08-11T02:57:03;16.20;21.00
1381;DHT22;684;48.342;10.096;2022-08-11T02:59:42;16.20;21.20
1381;DHT22;684;48.342;10.096;2022-08-11T03:02:37;16.20;21.00
1381;DHT22;684;48.342;10.096;2022-08-11T03:05:16;16.10;20.90
1381;DHT22;684;48.342;10.096;2022-08-11T03:07:57;16.20;21.10
1381;DHT22;684;48.342;10.096;2022-08-11T03:10:32;16.10;21.60
1381;DHT22;684;48.342;10.096;2022-08-11T03:13:07;16.10;21.60
1381;DHT22;684;48.342;10.096;2022-08-11T03:16:08;16.10;21.60
1381;DHT22;684;48.342;10.096;2022-08-11T03:19:02;16.10;21.60
1381;DHT22;684;48.342;10.096;2022-08-11T03:21:37;16.00;21.50
1381;DHT22;684;48.342;10.096;2022-08-11T03:24:13;16.00;21.70
1381;DHT22;684;48.342;10.096;2022-08-11T03:26:48;16.00;22.00
1381;DHT22;684;48.342;10.096;2022-08-11T03:29:22;15.90;22.90
1381;DHT22;684;48.342;10.096;2022-08-11T03:31:55;15.90;22.20
1381;DHT22;684;48.342;10.096;2022-08-11T03:34:25;15.90;22.20
1381;DHT22;684;48.342;10.096;2022-08-11T03:37:13;15.90;22.30
1381;DHT22;684;48.342;10.096;2022-08-11T03:40:05;15.90;22.80
1381;DHT22;684;48.342;10.096;2022-08-11T03:42:42;15.80;22.90
1381;DHT22;684;48.342;10.096;2022-08-11T03:45:19;15.80;22.90
1381;DHT22;684;48.342;10.096;2022-08-11T03:47:59;15.80;22.70
1381;DHT22;684;48.342;10.096;2022-08-11T03:50:46;15.80;23.30
1381;DHT22;684;48.342;10.096;2022-08-11T03:53:21;15.80;23.50
1381;DHT22;684;48.342;10.096;2022-08-11T03:56:12;15.70;23.70
1381;DHT22;684;48.342;10.096;2022-08-11T03:59:15;15.70;23.90
1381;DHT22;684;48.342;10.096;2022-08-11T04:02:16;15.60;24.00
1381;DHT22;684;48.342;10.096;2022-08-11T04:08:12;15.60;24.30
1381;DHT22;684;48.342;10.096;2022-08-11T04:11:11;15.60;24.40
1381;DHT22;684;48.342;10.096;2022-08-11T04:17:34;15.60;24.30
1381;DHT22;684;48.342;10.096;2022-08-11T04:20:28;15.50;24.70
1381;DHT22;684;48.342;10.096;2022-08-11T04:23:23;15.50;24.80
1381;DHT22;684;48.342;10.096;2022-08-11T04:26:29;15.50;24.80
1381;DHT22;684;48.342;10.096;2022-08-11T04:29:09;15.50;25.30
1381;DHT22;684;48.342;10.096;2022-08-11T04:31:38;15.50;25.40
1381;DHT22;684;48.342;10.096;2022-08-11T04:34:39;15.50;25.10
1381;DHT22;684;48.342;10.096;2022-08-11T04:40:11;15.60;25.10
1381;DHT22;684;48.342;10.096;2022-08-11T04:46:05;15.60;25.30
1381;DHT22;684;48.342;10.096;2022-08-11T04:52:25;15.60;25.20
1381;DHT22;684;48.342;10.096;2022-08-11T04:55:39;15.80;25.00
1381;DHT22;684;48.342;10.096;2022-08-11T04:58:43;15.80;25.40
1381;DHT22;684;48.342;10.096;2022-08-11T05:01:35;15.90;25.30
1381;DHT22;684;48.342;10.096;2022-08-11T05:04:20;16.00;24.80
1381;DHT22;684;48.342;10.096;2022-08-11T05:07:35;16.10;24.60
1381;DHT22;684;48.342;10.096;2022-08-11T05:10:13;16.30;24.50
1381;DHT22;684;48.342;10.096;2022-08-11T05:12:46;16.40;24.40
1381;DHT22;684;48.342;10.096;2022-08-11T05:15:18;16.60;24.10
1381;DHT22;684;48.342;10.096;2022-08-11T05:18:18;17.20;23.10
1381;DHT22;684;48.342;10.096;2022-08-11T05:21:06;18.70;19.80
1381;DHT22;684;48.342;10.096;2022-08-11T05:23:56;20.40;16.20
1381;DHT22;684;48.342;10.096;2022-08-11T05:26:44;22.20;12.70
1381;DHT22;684;48.342;10.096;2022-08-11T05:29:40;23.80;9.50
1381;DHT22;684;48.342;10.096;2022-08-11T05:32:32;25.40;6.50
1381;DHT22;684;48.342;10.096;2022-08-11T05:35:25;26.90;3.90
1381;DHT22;684;48.342;10.096;2022-08-11T05:37:54;28.40;1.80
1381;DHT22;684;48.342;10.096;2022-08-11T05:40:47;29.60;1.00
1381;DHT22;684;48.342;10.096;2022-08-11T05:43:32;30.90;1.00
1381;DHT22;684;48.342;10.096;2022-08-11T05:46:19;32.20;1.00
1381;DHT22;684;48.342;10.096;2022-08-11T05:49:08;33.30;1.00
1381;DHT22;684;48.342;10.096;2022-08-11T05:51:52;34.40;1.00
1381;DHT22;684;48.342;10.096;2022-08-11T05:54:37;35.40;1.00
1381;DHT22;684;48.342;10.096;2022-08-11T05:57:27;36.40;1.00
1381;DHT22;684;48.342;10.096;2022-08-11T05:59:58;37.20;1.00
1381;DHT22;684;48.342;10.096;2022-08-11T06:02:27;38.00;1.00
1381;DHT22;684;48.342;10.096;2022-08-11T06:04:56;38.70;1.00
1381;DHT22;684;48.342;10.096;2022-08-11T06:07:27;39.50;1.00
1381;DHT22;684;48.342;10.096;2022-08-11T06:09:55;40.20;1.00
1381;DHT22;684;48.342;10.096;2022-08-11T06:12:25;40.80;1.00
1381;DHT22;684;48.342;10.096;2022-08-11T06:14:55;41.40;1.00
1381;DHT22;684;48.342;10.096;2022-08-11T06:17:25;41.90;1.00
1381;DHT22;684;48.342;10.096;2022-08-11T06:19:59;42.50;1.00
1381;DHT22;684;48.342;10.096;2022-08-11T06:22:26;43.10;1.00
1381;DHT22;684;48.342;10.096;2022-08-11T06:24:56;43.70;1.00
1381;DHT22;684;48.342;10.096;2022-08-11T06:27:23;44.10;1.00
1381;DHT22;684;48.342;10.096;2022-08-11T06:29:52;44.50;1.00
1381;DHT22;684;48.342;10.096;2022-08-11T06:32:20;44.90;1.00
1381;DHT22;684;48.342;10.096;2022-08-11T06:35:02;45.20;1.00
1381;DHT22;684;48.342;10.096;2022-08-11T06:37:39;45.70;1.00
1381;DHT22;684;48.342;10.096;2022-08-11T06:40:19;46.20;1.00
1381;DHT22;684;48.342;10.096;2022-08-11T06:42:55;46.70;1.00
1381;DHT22;684;48.342;10.096;2022-08-11T06:45:29;46.60;1.00
1381;DHT22;684;48.342;10.096;2022-08-11T06:47:59;46.90;1.00
1381;DHT22;684;48.342;10.096;2022-08-11T06:50:29;47.50;1.00
1381;DHT22;684;48.342;10.096;2022-08-11T06:53:17;47.90;1.00
1381;DHT22;684;48.342;10.096;2022-08-11T06:55:47;48.00;1.00
1381;DHT22;684;48.342;10.096;2022-08-11T06:58:36;48.30;1.00
1381;DHT22;684;48.342;10.096;2022-08-11T07:01:38;48.90;1.00
1381;DHT22;684;48.342;10.096;2022-08-11T07:04:12;49.30;1.00
1381;DHT22;684;48.342;10.096;2022-08-11T07:06:55;49.10;1.00
1381;DHT22;684;48.342;10.096;2022-08-11T07:12:56;48.40;1.00
1381;DHT22;684;48.342;10.096;2022-08-11T07:15:43;49.10;1.00
1381;DHT22;684;48.342;10.096;2022-08-11T07:18:19;49.50;1.00
1381;DHT22;684;48.342;10.096;2022-08-11T07:21:14;49.90;1.00
1381;DHT22;684;48.342;10.096;2022-08-11T07:24:03;50.70;1.00
1381;DHT22;684;48.342;10.096;2022-08-11T07:26:54;51.20;1.00
1381;DHT22;684;48.342;10.096;2022-08-11T07:29:41;51.30;1.00
1381;DHT22;684;48.342;10.096;2022-08-11T07:32:21;50.70;1.00
1381;DHT22;684;48.342;10.096;2022-08-11T07:34:54;50.30;1.00
1381;DHT22;684;48.342;10.096;2022-08-11T07:37:23;49.70;1.00
1381;DHT22;684;48.342;10.096;2022-08-11T07:39:53;49.80;1.00
1381;DHT22;684;48.342;10.096;2022-08-11T07:42:24;50.30;1.00
1381;DHT22;684;48.342;10.096;2022-08-11T07:44:54;50.80;1.00
1381;DHT22;684;48.342;10.096;2022-08-11T07:47:39;50.70;1.00
1381;DHT22;684;48.342;10.096;2022-08-11T07:50:24;50.60;1.00
1381;DHT22;684;48.342;10.096;2022-08-11T07:53:09;51.10;1.00
1381;DHT22;684;48.342;10.096;2022-08-11T07:55:39;51.50;1.00
1381;DHT22;684;48.342;10.096;2022-08-11T07:58:06;51.10;1.00
1381;DHT22;684;48.342;10.096;2022-08-11T08:00:53;50.90;1.00
1381;DHT22;684;48.342;10.096;2022-08-11T08:03:38;51.10;1.00
1381;DHT22;684;48.342;10.096;2022-08-11T08:06:24;50.60;1.00
1381;DHT22;684;48.342;10.096;2022-08-11T08:09:09;50.30;1.00
1381;DHT22;684;48.342;10.096;2022-08-11T08:11:59;50.60;1.00
1381;DHT22;684;48.342;10.096;2022-08-11T08:14:45;51.20;1.00
1381;DHT22;684;48.342;10.096;2022-08-11T08:17:30;51.50;1.00
1381;DHT22;684;48.342;10.096;2022-08-11T08:20:19;51.20;1.00
1381;DHT22;684;48.342;10.096;2022-08-11T08:22:49;51.80;1.00
1381;DHT22;684;48.342;10.096;2022-08-11T08:25:22;52.10;1.00
1381;DHT22;684;48.342;10.096;2022-08-11T08:27:52;52.30;1.00
1381;DHT22;684;48.342;10.096;2022-08-11T08:30:19;52.00;1.00
1381;DHT22;684;48.342;10.096;2022-08-11T08:33:04;51.70;1.00
1381;DHT22;684;48.342;10.096;2022-08-11T08:35:31;50.90;1.00
1381;DHT22;684;48.342;10.096;2022-08-11T08:37:58;50.50;1.00
1381;DHT22;684;48.342;10.096;2022-08-11T08:40:25;50.40;1.00
1381;DHT22;684;48.342;10.096;2022-08-11T08:42:56;50.20;1.00
1381;DHT22;684;48.342;10.096;2022-08-11T08:45:24;51.00;1.00
1381;DHT22;684;48.342;10.096;2022-08-11T08:47:56;51.60;1.00
1381;DHT22;684;48.342;10.096;2022-08-11T08:50:26;51.50;1.00
1381;DHT22;684;48.342;10.096;2022-08-11T08:53:19;51.70;1.00
1381;DHT22;684;48.342;10.096;2022-08-11T08:55:47;51.90;1.00
1381;DHT22;684;48.342;10.096;2022-08-11T08:58:19;52.50;1.00
1381;DHT22;684;48.342;10.096;2022-08-11T09:00:49;53.00;1.00
1381;DHT22;684;48.342;10.096;2022-08-11T09:03:17;53.00;1.00
1381;DHT22;684;48.342;10.096;2022-08-11T09:05:45;53.00;1.00
1381;DHT22;684;48.342;10.096;2022-08-11T09:08:13;52.90;1.00
1381;DHT22;684;48.342;10.096;2022-08-11T09:10:44;53.10;1.00
1381;DHT22;684;48.342;10.096;2022-08-11T09:13:13;52.40;1.00
1381;DHT22;684;48.342;10.096;2022-08-11T09:15:44;51.80;1.00
1381;DHT22;684;48.342;10.096;2022-08-11T09:18:11;51.90;1.00
1381;DHT22;684;48.342;10.096;2022-08-11T09:20:38;52.40;1.00
1381;DHT22;684;48.342;10.096;2022-08-11T09:23:07;52.40;1.00
1381;DHT22;684;48.342;10.096;2022-08-11T09:25:54;52.10;1.00
1381;DHT22;684;48.342;10.096;2022-08-11T09:28:41;52.40;1.00
1381;DHT22;684;48.342;10.096;2022-08-11T09:31:10;53.10;1.00
1381;DHT22;684;48.342;10.096;2022-08-11T09:33:38;53.80;1.00
1381;DHT22;684;48.342;10.096;2022-08-11T09:36:06;54.00;1.00
1381;DHT22;684;48.342;10.096;2022-08-11T09:38:49;54.40;1.00
1381;DHT22;684;48.342;10.096;2022-08-11T09:41:35;54.80;1.00
1381;DHT22;684;48.342;10.096;2022-08-11T09:44:02;54.50;1.00
1381;DHT22;684;48.342;10.096;2022-08-11T09:46:48;54.50;1.00
1381;DHT22;684;48.342;10.096;2022-08-11T09:49:19;53.50;1.00
1381;DHT22;684;48.342;10.096;2022-08-11T09:51:47;52.50;1.00
1381;DHT22;684;48.342;10.096;2022-08-11T09:54:15;51.70;1.00
1381;DHT22;684;48.342;10.096;2022-08-11T09:56:43;51.20;1.00
1381;DHT22;684;48.342;10.096;2022-08-11T09:59:27;50.30;1.00
1381;DHT22;684;48.342;10.096;2022-08-11T10:01:57;50.00;1.00
1381;DHT22;684;48.342;10.096;2022-08-11T10:04:27;49.80;1.00
1381;DHT22;684;48.342;10.096;2022-08-11T10:07:01;50.30;1.00
1381;DHT22;684;48.342;10.096;2022-08-11T10:09:32;50.60;1.00
1381;DHT22;684;48.342;10.096;2022-08-11T10:12:00;50.70;1.00
1381;DHT22;684;48.342;10.096;2022-08-11T10:14:29;50.00;1.00
1381;DHT22;684;48.342;10.096;2022-08-11T10:17:16;49.70;1.00
1381;DHT22;684;48.342;10.096;2022-08-11T10:19:46;49.60;1.00
1381;DHT22;684;48.342;10.096;2022-08-11T10:22:14;49.50;1.00
1381;DHT22;684;48.342;10.096;2022-08-11T10:25:00;48.70;1.00
1381;DHT22;684;48.342;10.096;2022-08-11T10:27:45;47.00;1.00
1381;DHT22;684;48.342;10.096;2022-08-11T10:30:14;44.80;1.00
1381;DHT22;684;48.342;10.096;2022-08-11T10:33:01;42.70;1.00
1381;DHT22;684;48.342;10.096;2022-08-11T10:35:45;41.10;1.00
1381;DHT22;684;48.342;10.096;2022-08-11T10:38:13;39.70;1.00
1381;DHT22;684;48.342;10.096;2022-08-11T10:40:45;38.00;1.00
1381;DHT22;684;48.342;10.096;2022-08-11T10:43:32;36.70;1.00
1381;DHT22;684;48.342;10.096;2022-08-11T10:45:59;35.60;1.00
1381;DHT22;684;48.342;10.096;2022-08-11T10:48:44;35.00;1.00
1381;DHT22;684;48.342;10.096;2022-08-11T10:51:13;34.30;1.00
1381;DHT22;684;48.342;10.096;2022-08-11T10:53:41;33.80;1.00
1381;DHT22;684;48.342;10.096;2022-08-11T10:56:27;33.40;1.00
1381;DHT22;684;48.342;10.096;2022-08-11T10:59:12;33.00;1.00
1381;DHT22;684;48.342;10.096;2022-08-11T11:01:41;32.60;1.00
1381;DHT22;684;48.342;10.096;2022-08-11T11:04:14;32.20;1.00
1381;DHT22;684;48.342;10.096;2022-08-11T11:06:49;31.60;1.00
1381;DHT22;684;48.342;10.096;2022-08-11T11:09:18;31.00;1.00
1381;DHT22;684;48.342;10.096;2022-08-11T11:11:48;30.70;1.00
1381;DHT22;684;48.342;10.096;2022-08-11T11:14:35;30.30;1.00
1381;DHT22;684;48.342;10.096;2022-08-11T11:17:27;30.00;1.00
1381;DHT22;684;48.342;10.096;2022-08-11T11:20:17;29.70;1.00
1381;DHT22;684;48.342;10.096;2022-08-11T11:22:45;29.50;1.00
1381;DHT22;684;48.342;10.096;2022-08-11T11:25:24;29.40;1.00
1381;DHT22;684;48.342;10.096;2022-08-11T11:28:32;29.20;1.00
1381;DHT22;684;48.342;10.096;2022-08-11T11:31:11;29.00;1.00
1381;DHT22;684;48.342;10.096;2022-08-11T11:34:03;28.90;1.00
1381;DHT22;684;48.342;10.096;2022-08-11T11:36:44;28.70;1.00
1381;DHT22;684;48.342;10.096;2022-08-11T11:39:14;28.60;1.00
1381;DHT22;684;48.342;10.096;2022-08-11T11:41:42;28.60;1.00
1381;DHT22;684;48.342;10.096;2022-08-11T11:44:11;28.60;1.00
1381;DHT22;684;48.342;10.096;2022-08-11T11:46:38;28.60;1.00
1381;DHT22;684;48.342;10.096;2022-08-11T11:49:06;28.60;1.00
1381;DHT22;684;48.342;10.096;2022-08-11T11:51:35;28.60;1.00
1381;DHT22;684;48.342;10.096;2022-08-11T11:54:04;28.60;1.00
1381;DHT22;684;48.342;10.096;2022-08-11T11:56:32;28.50;1.00
1381;DHT22;684;48.342;10.096;2022-08-11T11:58:59;28.40;1.00
1381;DHT22;684;48.342;10.096;2022-08-11T12:01:45;28.30;1.00
1381;DHT22;684;48.342;10.096;2022-08-11T12:04:13;28.30;1.00
1381;DHT22;684;48.342;10.096;2022-08-11T12:06:40;28.30;1.00
1381;DHT22;684;48.342;10.096;2022-08-11T12:09:10;28.30;1.00
1381;DHT22;684;48.342;10.096;2022-08-11T12:11:40;28.40;1.00
1381;DHT22;684;48.342;10.096;2022-08-11T12:14:25;28.40;1.00
1381;DHT22;684;48.342;10.096;2022-08-11T12:16:55;28.40;1.00
1381;DHT22;684;48.342;10.096;2022-08-11T12:19:24;28.40;1.00
1381;DHT22;684;48.342;10.096;2022-08-11T12:21:54;28.30;1.00
1381;DHT22;684;48.342;10.096;2022-08-11T12:24:40;28.30;1.00
1381;DHT22;684;48.342;10.096;2022-08-11T12:27:26;28.20;1.00
1381;DHT22;684;48.342;10.096;2022-08-11T12:29:56;28.10;1.00
1381;DHT22;684;48.342;10.096;2022-08-11T12:32:26;28.00;1.00
1381;DHT22;684;48.342;10.096;2022-08-11T12:34:53;27.90;1.00
1381;DHT22;684;48.342;10.096;2022-08-11T12:37:24;27.90;1.00
1381;DHT22;684;48.342;10.096;2022-08-11T12:39:58;27.90;1.00
1381;DHT22;684;48.342;10.096;2022-08-11T12:42:44;27.90;1.00
1381;DHT22;684;48.342;10.096;2022-08-11T12:45:29;27.90;1.00
1381;DHT22;684;48.342;10.096;2022-08-11T12:48:02;28.00;1.00
1381;DHT22;684;48.342;10.096;2022-08-11T12:51:05;28.10;1.00
1381;DHT22;684;48.342;10.096;2022-08-11T12:53:53;28.10;1.00
1381;DHT22;684;48.342;10.096;2022-08-11T12:56:23;27.90;1.00
1381;DHT22;684;48.342;10.096;2022-08-11T12:59:09;27.90;1.00
1381;DHT22;684;48.342;10.096;2022-08-11T13:01:54;27.90;1.00
1381;DHT22;684;48.342;10.096;2022-08-11T13:04:40;27.90;1.00
1381;DHT22;684;48.342;10.096;2022-08-11T13:07:18;27.90;1.00
1381;DHT22;684;48.342;10.096;2022-08-11T13:09:46;27.90;1.00
1381;DHT22;684;48.342;10.096;2022-08-11T13:12:14;27.90;1.00
1381;DHT22;684;48.342;10.096;2022-08-11T13:15:01;27.80;1.00
1381;DHT22;684;48.342;10.096;2022-08-11T13:17:28;27.70;1.00
1381;DHT22;684;48.342;10.096;2022-08-11T13:19:57;27.70;1.00
1381;DHT22;684;48.342;10.096;2022-08-11T13:22:25;27.60;1.00
1381;DHT22;684;48.342;10.096;2022-08-11T13:24:53;27.70;1.00
1381;DHT22;684;48.342;10.096;2022-08-11T13:27:23;27.80;1.00
1381;DHT22;684;48.342;10.096;2022-08-11T13:29:50;27.90;1.00
1381;DHT22;684;48.342;10.096;2022-08-11T13:32:39;28.00;1.00
1381;DHT22;684;48.342;10.096;2022-08-11T13:35:07;28.10;1.00
1381;DHT22;684;48.342;10.096;2022-08-11T13:37:35;28.00;1.00
1381;DHT22;684;48.342;10.096;2022-08-11T13:40:02;28.00;1.00
1381;DHT22;684;48.342;10.096;2022-08-11T13:42:31;28.00;1.00
1381;DHT22;684;48.342;10.096;2022-08-11T13:44:58;27.90;1.00
1381;DHT22;684;48.342;10.096;2022-08-11T13:47:26;28.00;1.00
1381;DHT22;684;48.342;10.096;2022-08-11T13:49:53;28.10;1.00
1381;DHT22;684;48.342;10.096;2022-08-11T13:52:22;28.10;1.00
1381;DHT22;684;48.342;10.096;2022-08-11T13:54:49;28.10;1.00
1381;DHT22;684;48.342;10.096;2022-08-11T13:57:18;28.10;1.00
1381;DHT22;684;48.342;10.096;2022-08-11T13:59:51;28.20;1.00
1381;DHT22;684;48.342;10.096;2022-08-11T14:02:22;28.20;1.00
1381;DHT22;684;48.342;10.096;2022-08-11T14:04:54;28.20;1.00
1381;DHT22;684;48.342;10.096;2022-08-11T14:07:26;28.20;1.00
1381;DHT22;684;48.342;10.096;2022-08-11T14:10:00;28.20;1.00
1381;DHT22;684;48.342;10.096;2022-08-11T14:12:30;28.30;1.00
1381;DHT22;684;48.342;10.096;2022-08-11T14:15:19;28.30;1.00
1381;DHT22;684;48.342;10.096;2022-08-11T14:17:51;28.30;1.00
1381;DHT22;684;48.342;10.096;2022-08-11T14:20:20;28.30;1.00
1381;DHT22;684;48.342;10.096;2022-08-11T14:22:48;28.30;1.00
1381;DHT22;684;48.342;10.096;2022-08-11T14:25:15;28.20;1.00
1381;DHT22;684;48.342;10.096;2022-08-11T14:27:43;28.20;1.00
1381;DHT22;684;48.342;10.096;2022-08-11T14:30:13;28.10;1.00
1381;DHT22;684;48.342;10.096;2022-08-11T14:32:55;28.10;1.00
1381;DHT22;684;48.342;10.096;2022-08-11T14:35:23;28.10;1.00
1381;DHT22;684;48.342;10.096;2022-08-11T14:37:51;28.10;1.00
1381;DHT22;684;48.342;10.096;2022-08-11T14:40:34;28.10;1.00
1381;DHT22;684;48.342;10.096;2022-08-11T14:43:18;28.10;1.00
1381;DHT22;684;48.342;10.096;2022-08-11T14:46:03;28.10;1.00
1381;DHT22;684;48.342;10.096;2022-08-11T14:48:47;28.10;1.00
1381;DHT22;684;48.342;10.096;2022-08-11T14:51:14;28.10;1.00
1381;DHT22;684;48.342;10.096;2022-08-11T14:53:42;28.10;1.00
1381;DHT22;684;48.342;10.096;2022-08-11T14:56:10;28.10;1.00
1381;DHT22;684;48.342;10.096;2022-08-11T14:58:51;28.10;1.00
1381;DHT22;684;48.342;10.096;2022-08-11T15:01:18;28.10;1.00
1381;DHT22;684;48.342;10.096;2022-08-11T15:04:03;28.10;1.00
1381;DHT22;684;48.342;10.096;2022-08-11T15:06:30;28.10;1.00
1381;DHT22;684;48.342;10.096;2022-08-11T15:08:57;28.10;1.00
1381;DHT22;684;48.342;10.096;2022-08-11T15:11:29;28.10;1.00
1381;DHT22;684;48.342;10.096;2022-08-11T15:14:14;28.10;1.00
1381;DHT22;684;48.342;10.096;2022-08-11T15:17:04;28.10;1.00
1381;DHT22;684;48.342;10.096;2022-08-11T15:19:34;28.00;1.00
1381;DHT22;684;48.342;10.096;2022-08-11T15:22:02;27.90;1.00
1381;DHT22;684;48.342;10.096;2022-08-11T15:24:46;27.90;1.00
1381;DHT22;684;48.342;10.096;2022-08-11T15:27:18;27.90;1.00
1381;DHT22;684;48.342;10.096;2022-08-11T15:30:04;27.90;1.00
1381;DHT22;684;48.342;10.096;2022-08-11T15:32:50;27.90;1.00
1381;DHT22;684;48.342;10.096;2022-08-11T15:35:37;27.90;1.00
1381;DHT22;684;48.342;10.096;2022-08-11T15:38:22;27.90;1.00
1381;DHT22;684;48.342;10.096;2022-08-11T15:40:50;27.80;1.00
1381;DHT22;684;48.342;10.096;2022-08-11T15:43:39;27.80;1.00
1381;DHT22;684;48.342;10.096;2022-08-11T15:46:29;27.80;1.00
1381;DHT22;684;48.342;10.096;2022-08-11T15:48:58;27.80;1.00
1381;DHT22;684;48.342;10.096;2022-08-11T15:51:35;27.80;1.00
1381;DHT22;684;48.342;10.096;2022-08-11T15:54:04;27.80;1.00
1381;DHT22;684;48.342;10.096;2022-08-11T15:56:35;27.70;1.00
1381;DHT22;684;48.342;10.096;2022-08-11T15:59:06;27.70;1.00
1381;DHT22;684;48.342;10.096;2022-08-11T16:01:52;27.60;1.00
1381;DHT22;684;48.342;10.096;2022-08-11T16:04:51;27.70;1.00
1381;DHT22;684;48.342;10.096;2022-08-11T16:07:22;27.70;1.00
1381;DHT22;684;48.342;10.096;2022-08-11T16:09:55;27.60;1.00
1381;DHT22;684;48.342;10.096;2022-08-11T16:12:25;27.60;1.00
1381;DHT22;684;48.342;10.096;2022-08-11T16:14:57;27.70;1.00
1381;DHT22;684;48.342;10.096;2022-08-11T16:17:44;27.70;1.00
1381;DHT22;684;48.342;10.096;2022-08-11T16:20:14;27.60;1.00
1381;DHT22;684;48.342;10.096;2022-08-11T16:22:44;27.60;1.00
1381;DHT22;684;48.342;10.096;2022-08-11T16:25:16;27.60;1.00
1381;DHT22;684;48.342;10.096;2022-08-11T16:27:48;27.60;1.00
1381;DHT22;684;48.342;10.096;2022-08-11T16:30:18;27.50;1.00
1381;DHT22;684;48.342;10.096;2022-08-11T16:32:48;27.50;1.00
1381;DHT22;684;48.342;10.096;2022-08-11T16:35:19;27.50;1.00
1381;DHT22;684;48.342;10.096;2022-08-11T16:38:05;27.50;1.00
1381;DHT22;684;48.342;10.096;2022-08-11T16:40:51;27.50;1.00
1381;DHT22;684;48.342;10.096;2022-08-11T16:43:21;27.40;1.00
1381;DHT22;684;48.342;10.096;2022-08-11T16:46:08;27.40;1.00
1381;DHT22;684;48.342;10.096;2022-08-11T16:48:58;27.30;1.00
1381;DHT22;684;48.342;10.096;2022-08-11T16:51:26;27.30;1.00
1381;DHT22;684;48.342;10.096;2022-08-11T16:53:53;27.30;1.00
1381;DHT22;684;48.342;10.096;2022-08-11T16:56:24;27.20;1.00
1381;DHT22;684;48.342;10.096;2022-08-11T16:58:53;27.20;1.00
1381;DHT22;684;48.342;10.096;2022-08-11T17:01:40;27.20;1.00
1381;DHT22;684;48.342;10.096;2022-08-11T17:04:16;27.20;1.00
1381;DHT22;684;48.342;10.096;2022-08-11T17:07:03;27.10;1.00
1381;DHT22;684;48.342;10.096;2022-08-11T17:09:48;27.10;1.00
1381;DHT22;684;48.342;10.096;2022-08-11T17:12:34;27.10;1.00
1381;DHT22;684;48.342;10.096;2022-08-11T17:15:20;27.10;1.00
1381;DHT22;684;48.342;10.096;2022-08-11T17:18:12;27.00;1.00
1381;DHT22;684;48.342;10.096;2022-08-11T17:21:01;27.00;1.00
1381;DHT22;684;48.342;10.096;2022-08-11T17:23:30;26.90;1.00
1381;DHT22;684;48.342;10.096;2022-08-11T17:26:24;26.90;1.00
1381;DHT22;684;48.342;10.096;2022-08-11T17:28:56;26.80;1.00
1381;DHT22;684;48.342;10.096;2022-08-11T17:31:25;26.80;1.00
1381;DHT22;684;48.342;10.096;2022-08-11T17:34:13;26.70;1.00
1381;DHT22;684;48.342;10.096;2022-08-11T17:36:59;26.70;1.00
1381;DHT22;684;48.342;10.096;2022-08-11T17:39:29;26.60;1.00
1381;DHT22;684;48.342;10.096;2022-08-11T17:41:58;26.60;1.00
1381;DHT22;684;48.342;10.096;2022-08-11T17:44:44;26.50;1.00
1381;DHT22;684;48.342;10.096;2022-08-11T17:47:29;26.40;1.00
1381;DHT22;684;48.342;10.096;2022-08-11T17:50:16;26.40;1.00
1381;DHT22;684;48.342;10.096;2022-08-11T17:52:44;26.30;1.00
1381;DHT22;684;48.342;10.096;2022-08-11T17:55:30;26.30;1.00
1381;DHT22;684;48.342;10.096;2022-08-11T17:58:15;26.20;1.00
1381;DHT22;684;48.342;10.096;2022-08-11T18:01:01;26.10;1.00
1381;DHT22;684;48.342;10.096;2022-08-11T18:03:29;26.10;1.00
1381;DHT22;684;48.342;10.096;2022-08-11T18:06:06;26.00;1.00
1381;DHT22;684;48.342;10.096;2022-08-11T18:08:37;25.90;1.00
1381;DHT22;684;48.342;10.096;2022-08-11T18:11:23;25.90;1.00